Curtis, WA

11:49 AM PDT on May 03, 2015 (GMT -0700)
curtis | | Change Station
CLOSE
Current Station
Personal Weather Station
Location: Washington, WA
Elevation: 312 ft
Nearby Weather Stations

Elev 312 ft 46.56 °N, 123.18 °W | Updated 8 seconds ago

Clear
Clear
63.3 °F
Feels Like 63.3 °F
N
4.0
Wind Variable Wind from NNW
Gusts 9.0 mph

Today
High -- | Low -- °F
--% Chance of Precip.
Yesterday
High -- | Low -- °F
Precip. -- in
5:55 AM 8:24 PM
Full, 100% visible
Pressure 29.99 in
Visibility 4.0 miles
Clouds Clear
Dew Point 37 °F
Humidity 37%
Rainfall 0.00 in
Snow Depth Not available.
UV 8 out of 12
Pollen 8.10 out of 12
Air Quality Not available.
Flu Activity Sporadic
METAR KCLS 031835Z AUTO 02009KT 4SM HZ CLR 18/04 A2999 RMK AO2

More Conditions Fewer Conditions

Pressure 29.99 in
Visibility 4.0 miles
Clouds Clear
Dew Point 37 °F
Humidity 37%
Rainfall 0.00 in
Snow Depth Not available.
UV 8 out of 12
Pollen 8.10 out of 12
Air Quality Not available.
Flu Activity Sporadic
METAR KCLS 031835Z AUTO 02009KT 4SM HZ CLR 18/04 A2999 RMK AO2

More Conditions Fewer Conditions

Nepal has a long way to go to dig out and rebuild from a devastating earthquake. We have teamed up with several charities and organizations to make contributing to the relief effort as easy as possible.
How you can help: Portlight Strategies | Red Cross

10-Day Weather Forecast

Almanac

Astronomy

May. 03, 2015 Rise Set
Actual Time
Civil Twilight
Nautical Twilight
Astronomical Twilight
Moon
Length of Visible Light
Length of Day
Tomorrow will be .
, % of the Moon is Illuminated

Today's Extremes

State Highs State Lows

Community

WunderPhotos

Upload Photos

1,818,310 photos uploaded!

WunderBlogs® & News

Nearby

Air Quality

  Air Quality AQ Index Pollutant
Not available.

Snow Depth

Station Depth Elevation

Earthquake Activity

City Distance Mag. Time & Date
Minimum magnitude displayed is 2.5.

Coastal Water Temperatures

Place Temperature

Stations

Nearby Weather Stations

Station Location Temp. Windchill Dew Point Humidity Wind Precip. Elev Updated Type